sensor_id;sensor_type;location;lat;lon;timestamp;temperature;humidity
9223;DHT22;7557;51.698;3.942;2022-10-16T00:01:38;15.10;99.90
9223;DHT22;7557;51.698;3.942;2022-10-16T00:04:05;15.10;99.90
9223;DHT22;7557;51.698;3.942;2022-10-16T00:06:34;15.10;99.90
9223;DHT22;7557;51.698;3.942;2022-10-16T00:09:02;15.10;99.90
9223;DHT22;7557;51.698;3.942;2022-10-16T00:11:43;15.10;99.90
9223;DHT22;7557;51.698;3.942;2022-10-16T00:14:24;15.10;99.90
9223;DHT22;7557;51.698;3.942;2022-10-16T00:16:51;15.00;99.90
9223;DHT22;7557;51.698;3.942;2022-10-16T00:19:19;15.00;99.90
9223;DHT22;7557;51.698;3.942;2022-10-16T00:21:56;15.00;99.90
9223;DHT22;7557;51.698;3.942;2022-10-16T00:24:24;15.00;99.90
9223;DHT22;7557;51.698;3.942;2022-10-16T00:26:51;15.00;99.90
9223;DHT22;7557;51.698;3.942;2022-10-16T00:29:19;14.90;99.90
9223;DHT22;7557;51.698;3.942;2022-10-16T00:31:46;14.90;99.90
9223;DHT22;7557;51.698;3.942;2022-10-16T00:34:13;14.90;99.90
9223;DHT22;7557;51.698;3.942;2022-10-16T00:36:41;14.90;99.90
9223;DHT22;7557;51.698;3.942;2022-10-16T00:39:14;14.90;99.90
9223;DHT22;7557;51.698;3.942;2022-10-16T00:41:41;14.80;99.90
9223;DHT22;7557;51.698;3.942;2022-10-16T00:44:47;14.80;99.90
9223;DHT22;7557;51.698;3.942;2022-10-16T00:47:21;14.80;99.90
9223;DHT22;7557;51.698;3.942;2022-10-16T00:49:51;14.70;99.90
9223;DHT22;7557;51.698;3.942;2022-10-16T00:52:20;14.70;99.90
9223;DHT22;7557;51.698;3.942;2022-10-16T00:54:50;14.70;99.90
9223;DHT22;7557;51.698;3.942;2022-10-16T00:57:19;14.70;99.90
9223;DHT22;7557;51.698;3.942;2022-10-16T00:59:46;14.70;99.90
9223;DHT22;7557;51.698;3.942;2022-10-16T01:02:15;14.70;99.90
9223;DHT22;7557;51.698;3.942;2022-10-16T01:04:45;14.60;99.90
9223;DHT22;7557;51.698;3.942;2022-10-16T01:07:20;14.60;99.90
9223;DHT22;7557;51.698;3.942;2022-10-16T01:10:02;14.60;99.90
9223;DHT22;7557;51.698;3.942;2022-10-16T01:12:39;14.50;99.90
9223;DHT22;7557;51.698;3.942;2022-10-16T01:15:17;14.50;99.90
9223;DHT22;7557;51.698;3.942;2022-10-16T01:17:49;14.50;99.90
9223;DHT22;7557;51.698;3.942;2022-10-16T01:20:24;14.50;99.90
9223;DHT22;7557;51.698;3.942;2022-10-16T01:23:19;14.50;99.90
9223;DHT22;7557;51.698;3.942;2022-10-16T01:26:19;14.50;99.90
9223;DHT22;7557;51.698;3.942;2022-10-16T01:28:52;14.50;99.90
9223;DHT22;7557;51.698;3.942;2022-10-16T01:31:24;14.50;99.90
9223;DHT22;7557;51.698;3.942;2022-10-16T01:33:58;14.50;99.90
9223;DHT22;7557;51.698;3.942;2022-10-16T01:36:31;14.50;99.90
9223;DHT22;7557;51.698;3.942;2022-10-16T01:39:02;14.50;99.90
9223;DHT22;7557;51.698;3.942;2022-10-16T01:41:46;14.50;99.90
9223;DHT22;7557;51.698;3.942;2022-10-16T01:44:32;14.50;99.90
9223;DHT22;7557;51.698;3.942;2022-10-16T01:47:02;14.60;99.90
9223;DHT22;7557;51.698;3.942;2022-10-16T01:49:45;14.50;99.90
9223;DHT22;7557;51.698;3.942;2022-10-16T01:52:17;14.60;99.90
9223;DHT22;7557;51.698;3.942;2022-10-16T01:54:47;14.60;99.90
9223;DHT22;7557;51.698;3.942;2022-10-16T01:57:16;14.60;99.90
9223;DHT22;7557;51.698;3.942;2022-10-16T01:59:49;14.60;99.90
9223;DHT22;7557;51.698;3.942;2022-10-16T02:02:21;14.60;99.90
9223;DHT22;7557;51.698;3.942;2022-10-16T02:05:03;14.60;99.90
9223;DHT22;7557;51.698;3.942;2022-10-16T02:07:31;14.60;99.90
9223;DHT22;7557;51.698;3.942;2022-10-16T02:10:00;14.70;99.90
9223;DHT22;7557;51.698;3.942;2022-10-16T02:12:43;14.70;99.90
9223;DHT22;7557;51.698;3.942;2022-10-16T02:15:46;14.70;99.90
9223;DHT22;7557;51.698;3.942;2022-10-16T02:18:13;14.70;99.90
9223;DHT22;7557;51.698;3.942;2022-10-16T02:20:48;14.70;99.90
9223;DHT22;7557;51.698;3.942;2022-10-16T02:23:37;14.70;99.90
9223;DHT22;7557;51.698;3.942;2022-10-16T02:26:12;14.70;99.90
9223;DHT22;7557;51.698;3.942;2022-10-16T02:28:58;14.70;99.90
9223;DHT22;7557;51.698;3.942;2022-10-16T02:31:31;14.70;99.90
9223;DHT22;7557;51.698;3.942;2022-10-16T02:34:01;14.70;99.90
9223;DHT22;7557;51.698;3.942;2022-10-16T02:36:31;14.70;99.90
9223;DHT22;7557;51.698;3.942;2022-10-16T02:38:59;14.70;99.90
9223;DHT22;7557;51.698;3.942;2022-10-16T02:41:41;14.70;99.90
9223;DHT22;7557;51.698;3.942;2022-10-16T02:44:08;14.60;99.90
9223;DHT22;7557;51.698;3.942;2022-10-16T02:46:37;14.60;99.90
9223;DHT22;7557;51.698;3.942;2022-10-16T02:49:05;14.60;99.90
9223;DHT22;7557;51.698;3.942;2022-10-16T02:51:32;14.50;99.90
9223;DHT22;7557;51.698;3.942;2022-10-16T02:54:00;14.50;99.90
9223;DHT22;7557;51.698;3.942;2022-10-16T02:56:27;14.50;99.90
9223;DHT22;7557;51.698;3.942;2022-10-16T02:58:55;14.50;99.90
9223;DHT22;7557;51.698;3.942;2022-10-16T03:01:23;14.50;99.90
9223;DHT22;7557;51.698;3.942;2022-10-16T03:03:52;14.50;99.90
9223;DHT22;7557;51.698;3.942;2022-10-16T03:06:19;14.40;99.90
9223;DHT22;7557;51.698;3.942;2022-10-16T03:08:55;14.40;99.90
9223;DHT22;7557;51.698;3.942;2022-10-16T03:11:36;14.40;99.90
9223;DHT22;7557;51.698;3.942;2022-10-16T03:14:04;14.30;99.90
9223;DHT22;7557;51.698;3.942;2022-10-16T03:16:32;14.30;99.90
9223;DHT22;7557;51.698;3.942;2022-10-16T03:19:02;14.30;99.90
9223;DHT22;7557;51.698;3.942;2022-10-16T03:21:29;14.30;99.90
9223;DHT22;7557;51.698;3.942;2022-10-16T03:23:57;14.20;99.90
9223;DHT22;7557;51.698;3.942;2022-10-16T03:26:38;14.20;99.90
9223;DHT22;7557;51.698;3.942;2022-10-16T03:29:05;14.20;99.90
9223;DHT22;7557;51.698;3.942;2022-10-16T03:31:33;14.20;99.90
9223;DHT22;7557;51.698;3.942;2022-10-16T03:34:16;14.20;99.90
9223;DHT22;7557;51.698;3.942;2022-10-16T03:36:44;14.20;99.90
9223;DHT22;7557;51.698;3.942;2022-10-16T03:39:25;14.20;99.90
9223;DHT22;7557;51.698;3.942;2022-10-16T03:41:52;14.10;99.90
9223;DHT22;7557;51.698;3.942;2022-10-16T03:44:34;14.10;99.90
9223;DHT22;7557;51.698;3.942;2022-10-16T03:47:10;14.10;99.90
9223;DHT22;7557;51.698;3.942;2022-10-16T03:49:39;14.10;99.90
9223;DHT22;7557;51.698;3.942;2022-10-16T03:52:06;14.10;99.90
9223;DHT22;7557;51.698;3.942;2022-10-16T03:54:34;14.10;99.90
9223;DHT22;7557;51.698;3.942;2022-10-16T03:57:01;14.10;99.90
9223;DHT22;7557;51.698;3.942;2022-10-16T03:59:28;14.10;99.90
9223;DHT22;7557;51.698;3.942;2022-10-16T04:02:09;14.10;99.90
9223;DHT22;7557;51.698;3.942;2022-10-16T04:04:38;14.10;99.90
9223;DHT22;7557;51.698;3.942;2022-10-16T04:07:06;14.10;99.90
9223;DHT22;7557;51.698;3.942;2022-10-16T04:09:47;14.10;99.90
9223;DHT22;7557;51.698;3.942;2022-10-16T04:12:14;14.00;99.90
9223;DHT22;7557;51.698;3.942;2022-10-16T04:14:45;14.00;99.90
9223;DHT22;7557;51.698;3.942;2022-10-16T04:17:12;14.00;99.90
9223;DHT22;7557;51.698;3.942;2022-10-16T04:19:41;14.00;99.90
9223;DHT22;7557;51.698;3.942;2022-10-16T04:22:09;14.00;99.90
9223;DHT22;7557;51.698;3.942;2022-10-16T04:24:36;14.00;99.90
9223;DHT22;7557;51.698;3.942;2022-10-16T04:27:04;14.00;99.90
9223;DHT22;7557;51.698;3.942;2022-10-16T04:29:45;14.00;99.90
9223;DHT22;7557;51.698;3.942;2022-10-16T04:32:26;14.00;99.90
9223;DHT22;7557;51.698;3.942;2022-10-16T04:34:55;14.00;99.90
9223;DHT22;7557;51.698;3.942;2022-10-16T04:37:24;14.00;99.90
9223;DHT22;7557;51.698;3.942;2022-10-16T04:39:52;14.00;99.90
9223;DHT22;7557;51.698;3.942;2022-10-16T04:42:20;14.00;99.90
9223;DHT22;7557;51.698;3.942;2022-10-16T04:44:47;14.00;99.90
9223;DHT22;7557;51.698;3.942;2022-10-16T04:47:15;14.00;99.90
9223;DHT22;7557;51.698;3.942;2022-10-16T04:49:57;14.00;99.90
9223;DHT22;7557;51.698;3.942;2022-10-16T04:52:28;14.00;99.90
9223;DHT22;7557;51.698;3.942;2022-10-16T04:54:57;14.00;99.90
9223;DHT22;7557;51.698;3.942;2022-10-16T04:57:27;14.00;99.90
9223;DHT22;7557;51.698;3.942;2022-10-16T05:00:09;14.10;99.90
9223;DHT22;7557;51.698;3.942;2022-10-16T05:02:37;14.00;99.90
9223;DHT22;7557;51.698;3.942;2022-10-16T05:05:06;14.10;99.90
9223;DHT22;7557;51.698;3.942;2022-10-16T05:07:34;14.10;99.90
9223;DHT22;7557;51.698;3.942;2022-10-16T05:10:02;14.10;99.90
9223;DHT22;7557;51.698;3.942;2022-10-16T05:12:29;14.10;99.90
9223;DHT22;7557;51.698;3.942;2022-10-16T05:14:57;14.20;99.90
9223;DHT22;7557;51.698;3.942;2022-10-16T05:17:24;14.20;99.90
9223;DHT22;7557;51.698;3.942;2022-10-16T05:19:51;14.20;99.90
9223;DHT22;7557;51.698;3.942;2022-10-16T05:22:20;14.20;99.90
9223;DHT22;7557;51.698;3.942;2022-10-16T05:24:48;14.30;99.90
9223;DHT22;7557;51.698;3.942;2022-10-16T05:27:15;14.30;99.90
9223;DHT22;7557;51.698;3.942;2022-10-16T05:29:45;14.30;99.90
9223;DHT22;7557;51.698;3.942;2022-10-16T05:32:26;14.30;99.90
9223;DHT22;7557;51.698;3.942;2022-10-16T05:35:08;14.30;99.90
9223;DHT22;7557;51.698;3.942;2022-10-16T05:37:37;14.20;99.90
9223;DHT22;7557;51.698;3.942;2022-10-16T05:40:05;14.20;99.90
9223;DHT22;7557;51.698;3.942;2022-10-16T05:42:33;14.30;99.90
9223;DHT22;7557;51.698;3.942;2022-10-16T05:45:14;14.20;99.90
9223;DHT22;7557;51.698;3.942;2022-10-16T05:47:41;14.20;99.90
9223;DHT22;7557;51.698;3.942;2022-10-16T05:50:08;14.20;99.90
9223;DHT22;7557;51.698;3.942;2022-10-16T05:52:37;14.20;99.90
9223;DHT22;7557;51.698;3.942;2022-10-16T05:55:05;14.10;99.90
9223;DHT22;7557;51.698;3.942;2022-10-16T05:57:33;14.10;99.90
9223;DHT22;7557;51.698;3.942;2022-10-16T06:00:00;14.10;99.90
9223;DHT22;7557;51.698;3.942;2022-10-16T06:02:41;14.10;99.90
9223;DHT22;7557;51.698;3.942;2022-10-16T06:05:09;14.00;99.90
9223;DHT22;7557;51.698;3.942;2022-10-16T06:07:42;14.00;99.90
9223;DHT22;7557;51.698;3.942;2022-10-16T06:10:09;14.00;99.90
9223;DHT22;7557;51.698;3.942;2022-10-16T06:12:37;14.00;99.90
9223;DHT22;7557;51.698;3.942;2022-10-16T06:15:05;14.00;99.90
9223;DHT22;7557;51.698;3.942;2022-10-16T06:17:32;14.00;99.90
9223;DHT22;7557;51.698;3.942;2022-10-16T06:20:00;14.00;99.90
9223;DHT22;7557;51.698;3.942;2022-10-16T06:22:27;14.00;99.90
9223;DHT22;7557;51.698;3.942;2022-10-16T06:24:56;14.00;99.90
9223;DHT22;7557;51.698;3.942;2022-10-16T06:27:23;14.00;99.90
9223;DHT22;7557;51.698;3.942;2022-10-16T06:29:50;14.00;99.90
9223;DHT22;7557;51.698;3.942;2022-10-16T06:32:18;14.00;99.90
9223;DHT22;7557;51.698;3.942;2022-10-16T06:34:59;13.90;99.90
9223;DHT22;7557;51.698;3.942;2022-10-16T06:37:40;13.90;99.90
9223;DHT22;7557;51.698;3.942;2022-10-16T06:40:09;13.90;99.90
9223;DHT22;7557;51.698;3.942;2022-10-16T06:42:37;13.90;99.90
9223;DHT22;7557;51.698;3.942;2022-10-16T06:45:05;13.90;99.90
9223;DHT22;7557;51.698;3.942;2022-10-16T06:47:33;13.90;99.90
9223;DHT22;7557;51.698;3.942;2022-10-16T06:50:00;13.90;99.90
9223;DHT22;7557;51.698;3.942;2022-10-16T06:52:29;13.90;99.90
9223;DHT22;7557;51.698;3.942;2022-10-16T06:54:57;13.80;99.90
9223;DHT22;7557;51.698;3.942;2022-10-16T06:57:26;13.90;99.90
9223;DHT22;7557;51.698;3.942;2022-10-16T06:59:53;13.90;99.90
9223;DHT22;7557;51.698;3.942;2022-10-16T07:02:21;13.90;99.90
9223;DHT22;7557;51.698;3.942;2022-10-16T07:04:48;13.90;99.90
9223;DHT22;7557;51.698;3.942;2022-10-16T07:07:16;13.90;99.90
9223;DHT22;7557;51.698;3.942;2022-10-16T07:09:58;14.00;99.90
9223;DHT22;7557;51.698;3.942;2022-10-16T07:12:59;14.00;99.90
9223;DHT22;7557;51.698;3.942;2022-10-16T07:15:27;14.00;99.90
9223;DHT22;7557;51.698;3.942;2022-10-16T07:17:54;14.00;99.90
9223;DHT22;7557;51.698;3.942;2022-10-16T07:20:22;14.00;99.90
9223;DHT22;7557;51.698;3.942;2022-10-16T07:22:49;14.00;99.90
9223;DHT22;7557;51.698;3.942;2022-10-16T07:25:17;14.10;99.90
9223;DHT22;7557;51.698;3.942;2022-10-16T07:27:44;14.10;99.90
9223;DHT22;7557;51.698;3.942;2022-10-16T07:30:13;14.10;99.90
9223;DHT22;7557;51.698;3.942;2022-10-16T07:32:44;14.20;99.90
9223;DHT22;7557;51.698;3.942;2022-10-16T07:35:11;14.20;99.90
9223;DHT22;7557;51.698;3.942;2022-10-16T07:37:38;14.30;99.90
9223;DHT22;7557;51.698;3.942;2022-10-16T07:40:07;14.30;99.90
9223;DHT22;7557;51.698;3.942;2022-10-16T07:42:35;14.40;99.90
9223;DHT22;7557;51.698;3.942;2022-10-16T07:45:17;14.40;99.90
9223;DHT22;7557;51.698;3.942;2022-10-16T07:47:45;14.50;99.90
9223;DHT22;7557;51.698;3.942;2022-10-16T07:50:26;14.50;99.90
9223;DHT22;7557;51.698;3.942;2022-10-16T07:52:53;14.60;99.90
9223;DHT22;7557;51.698;3.942;2022-10-16T07:55:20;14.60;99.90
9223;DHT22;7557;51.698;3.942;2022-10-16T07:58:01;14.70;99.90
9223;DHT22;7557;51.698;3.942;2022-10-16T08:00:31;14.70;99.90
9223;DHT22;7557;51.698;3.942;2022-10-16T08:02:59;14.80;99.90
9223;DHT22;7557;51.698;3.942;2022-10-16T08:05:40;14.90;99.90
9223;DHT22;7557;51.698;3.942;2022-10-16T08:08:12;15.00;99.90
9223;DHT22;7557;51.698;3.942;2022-10-16T08:10:40;15.10;99.90
9223;DHT22;7557;51.698;3.942;2022-10-16T08:13:07;15.10;99.90
9223;DHT22;7557;51.698;3.942;2022-10-16T08:15:36;15.20;99.90
9223;DHT22;7557;51.698;3.942;2022-10-16T08:18:05;15.30;99.90
9223;DHT22;7557;51.698;3.942;2022-10-16T08:20:33;15.50;99.90
9223;DHT22;7557;51.698;3.942;2022-10-16T08:23:10;15.60;99.90
9223;DHT22;7557;51.698;3.942;2022-10-16T08:25:38;15.70;99.90
9223;DHT22;7557;51.698;3.942;2022-10-16T08:28:06;15.90;99.90
9223;DHT22;7557;51.698;3.942;2022-10-16T08:30:36;16.10;99.90
9223;DHT22;7557;51.698;3.942;2022-10-16T08:33:03;16.20;99.90
9223;DHT22;7557;51.698;3.942;2022-10-16T08:35:31;16.30;99.90
9223;DHT22;7557;51.698;3.942;2022-10-16T08:37:59;16.50;99.90
9223;DHT22;7557;51.698;3.942;2022-10-16T08:40:28;16.60;99.90
9223;DHT22;7557;51.698;3.942;2022-10-16T08:43:12;16.70;99.90
9223;DHT22;7557;51.698;3.942;2022-10-16T08:46:19;16.80;99.90
9223;DHT22;7557;51.698;3.942;2022-10-16T08:48:50;16.80;99.90
9223;DHT22;7557;51.698;3.942;2022-10-16T08:51:20;16.90;99.90
9223;DHT22;7557;51.698;3.942;2022-10-16T08:53:52;17.10;99.90
9223;DHT22;7557;51.698;3.942;2022-10-16T08:56:21;17.10;99.90
9223;DHT22;7557;51.698;3.942;2022-10-16T08:58:49;17.20;99.90
9223;DHT22;7557;51.698;3.942;2022-10-16T09:01:20;17.30;99.90
9223;DHT22;7557;51.698;3.942;2022-10-16T09:04:11;17.30;99.90
9223;DHT22;7557;51.698;3.942;2022-10-16T09:06:45;17.30;99.90
9223;DHT22;7557;51.698;3.942;2022-10-16T09:09:30;17.40;99.90
9223;DHT22;7557;51.698;3.942;2022-10-16T09:12:17;17.50;99.90
9223;DHT22;7557;51.698;3.942;2022-10-16T09:14:52;17.70;99.90
9223;DHT22;7557;51.698;3.942;2022-10-16T09:17:46;17.80;99.90
9223;DHT22;7557;51.698;3.942;2022-10-16T09:20:26;17.90;99.90
9223;DHT22;7557;51.698;3.942;2022-10-16T09:23:08;18.00;99.90
9223;DHT22;7557;51.698;3.942;2022-10-16T09:25:39;18.30;99.90
9223;DHT22;7557;51.698;3.942;2022-10-16T09:28:08;18.40;99.90
9223;DHT22;7557;51.698;3.942;2022-10-16T09:30:37;18.50;99.90
9223;DHT22;7557;51.698;3.942;2022-10-16T09:33:07;18.60;99.90
9223;DHT22;7557;51.698;3.942;2022-10-16T09:35:38;18.60;99.90
9223;DHT22;7557;51.698;3.942;2022-10-16T09:38:06;18.70;99.90
9223;DHT22;7557;51.698;3.942;2022-10-16T09:40:36;18.70;99.90
9223;DHT22;7557;51.698;3.942;2022-10-16T09:43:14;18.70;99.90
9223;DHT22;7557;51.698;3.942;2022-10-16T09:45:57;18.70;99.90
9223;DHT22;7557;51.698;3.942;2022-10-16T09:48:30;18.80;99.90
9223;DHT22;7557;51.698;3.942;2022-10-16T09:51:00;18.90;99.90
9223;DHT22;7557;51.698;3.942;2022-10-16T09:53:39;18.90;99.90
9223;DHT22;7557;51.698;3.942;2022-10-16T09:56:07;19.00;99.90
9223;DHT22;7557;51.698;3.942;2022-10-16T09:58:34;19.10;99.90
9223;DHT22;7557;51.698;3.942;2022-10-16T10:01:03;19.10;99.90
9223;DHT22;7557;51.698;3.942;2022-10-16T10:03:39;19.20;99.90
9223;DHT22;7557;51.698;3.942;2022-10-16T10:06:27;19.20;99.90
9223;DHT22;7557;51.698;3.942;2022-10-16T10:09:04;19.20;99.90
9223;DHT22;7557;51.698;3.942;2022-10-16T10:11:53;19.30;99.90
9223;DHT22;7557;51.698;3.942;2022-10-16T10:14:31;19.30;99.90
9223;DHT22;7557;51.698;3.942;2022-10-16T10:17:12;19.30;99.90
9223;DHT22;7557;51.698;3.942;2022-10-16T10:19:46;19.40;99.90
9223;DHT22;7557;51.698;3.942;2022-10-16T10:25:19;19.50;99.90
9223;DHT22;7557;51.698;3.942;2022-10-16T10:28:04;19.60;99.90
9223;DHT22;7557;51.698;3.942;2022-10-16T10:30:40;19.60;99.90
9223;DHT22;7557;51.698;3.942;2022-10-16T10:33:18;19.70;99.90
9223;DHT22;7557;51.698;3.942;2022-10-16T10:36:05;19.70;99.90
9223;DHT22;7557;51.698;3.942;2022-10-16T10:38:42;19.70;99.90
9223;DHT22;7557;51.698;3.942;2022-10-16T10:41:48;19.70;99.90
9223;DHT22;7557;51.698;3.942;2022-10-16T10:44:31;19.50;99.90
9223;DHT22;7557;51.698;3.942;2022-10-16T10:47:15;19.50;99.90
9223;DHT22;7557;51.698;3.942;2022-10-16T10:49:54;19.60;99.90
9223;DHT22;7557;51.698;3.942;2022-10-16T10:52:46;19.70;99.90
9223;DHT22;7557;51.698;3.942;2022-10-16T10:55:23;19.80;99.90
9223;DHT22;7557;51.698;3.942;2022-10-16T10:58:21;19.70;99.90
9223;DHT22;7557;51.698;3.942;2022-10-16T11:00:56;19.80;99.90
9223;DHT22;7557;51.698;3.942;2022-10-16T11:03:56;19.90;99.90
9223;DHT22;7557;51.698;3.942;2022-10-16T11:06:29;20.00;99.90
9223;DHT22;7557;51.698;3.942;2022-10-16T11:09:02;20.10;99.90
9223;DHT22;7557;51.698;3.942;2022-10-16T11:11:38;20.20;99.90
9223;DHT22;7557;51.698;3.942;2022-10-16T11:14:14;20.20;99.90
9223;DHT22;7557;51.698;3.942;2022-10-16T11:16:46;20.30;99.90
9223;DHT22;7557;51.698;3.942;2022-10-16T11:19:25;20.30;99.90
9223;DHT22;7557;51.698;3.942;2022-10-16T11:22:15;20.30;99.90
9223;DHT22;7557;51.698;3.942;2022-10-16T11:24:49;20.30;99.90
9223;DHT22;7557;51.698;3.942;2022-10-16T11:27:23;20.30;99.90
9223;DHT22;7557;51.698;3.942;2022-10-16T11:29:59;20.50;99.90
9223;DHT22;7557;51.698;3.942;2022-10-16T11:32:32;20.50;99.90
9223;DHT22;7557;51.698;3.942;2022-10-16T11:35:08;20.50;99.90
9223;DHT22;7557;51.698;3.942;2022-10-16T11:37:41;20.60;99.90
9223;DHT22;7557;51.698;3.942;2022-10-16T11:40:20;20.70;99.90
9223;DHT22;7557;51.698;3.942;2022-10-16T11:42:54;20.80;99.90
9223;DHT22;7557;51.698;3.942;2022-10-16T11:45:30;20.80;99.90
9223;DHT22;7557;51.698;3.942;2022-10-16T11:48:04;20.90;99.90
9223;DHT22;7557;51.698;3.942;2022-10-16T11:50:39;21.00;99.90
9223;DHT22;7557;51.698;3.942;2022-10-16T11:53:15;20.90;99.90
9223;DHT22;7557;51.698;3.942;2022-10-16T11:55:59;20.80;99.90
9223;DHT22;7557;51.698;3.942;2022-10-16T11:58:29;20.80;99.90
9223;DHT22;7557;51.698;3.942;2022-10-16T12:01:04;20.70;99.90
9223;DHT22;7557;51.698;3.942;2022-10-16T12:03:41;20.70;99.90
9223;DHT22;7557;51.698;3.942;2022-10-16T12:06:27;20.70;99.90
9223;DHT22;7557;51.698;3.942;2022-10-16T12:09:16;20.70;99.90
9223;DHT22;7557;51.698;3.942;2022-10-16T12:11:48;20.60;99.90
9223;DHT22;7557;51.698;3.942;2022-10-16T12:14:22;20.50;99.90
9223;DHT22;7557;51.698;3.942;2022-10-16T12:17:02;20.40;99.90
9223;DHT22;7557;51.698;3.942;2022-10-16T12:19:32;20.40;99.90
9223;DHT22;7557;51.698;3.942;2022-10-16T12:22:00;20.40;99.90
9223;DHT22;7557;51.698;3.942;2022-10-16T12:24:35;20.50;99.90
9223;DHT22;7557;51.698;3.942;2022-10-16T12:27:06;20.50;99.90
9223;DHT22;7557;51.698;3.942;2022-10-16T12:29:44;20.40;99.90
9223;DHT22;7557;51.698;3.942;2022-10-16T12:32:24;20.40;99.90
9223;DHT22;7557;51.698;3.942;2022-10-16T12:34:54;20.50;99.90
9223;DHT22;7557;51.698;3.942;2022-10-16T12:37:24;20.50;99.90
9223;DHT22;7557;51.698;3.942;2022-10-16T12:39:53;20.50;99.90
9223;DHT22;7557;51.698;3.942;2022-10-16T12:42:46;20.50;99.90
9223;DHT22;7557;51.698;3.942;2022-10-16T12:45:24;20.50;99.90
9223;DHT22;7557;51.698;3.942;2022-10-16T12:47:54;20.50;99.90
9223;DHT22;7557;51.698;3.942;2022-10-16T12:50:28;20.50;99.90
9223;DHT22;7557;51.698;3.942;2022-10-16T12:52:58;20.40;99.90
9223;DHT22;7557;51.698;3.942;2022-10-16T12:55:26;20.50;99.90
9223;DHT22;7557;51.698;3.942;2022-10-16T12:58:27;20.50;99.90
9223;DHT22;7557;51.698;3.942;2022-10-16T13:01:03;20.60;99.90
9223;DHT22;7557;51.698;3.942;2022-10-16T13:04:01;20.60;99.90
9223;DHT22;7557;51.698;3.942;2022-10-16T13:06:38;20.60;99.90
9223;DHT22;7557;51.698;3.942;2022-10-16T13:09:43;20.60;99.90
9223;DHT22;7557;51.698;3.942;2022-10-16T13:12:37;20.60;99.90
9223;DHT22;7557;51.698;3.942;2022-10-16T13:15:27;20.60;99.90
9223;DHT22;7557;51.698;3.942;2022-10-16T13:18:15;20.50;99.90
9223;DHT22;7557;51.698;3.942;2022-10-16T13:21:07;20.50;99.90
9223;DHT22;7557;51.698;3.942;2022-10-16T13:23:45;20.60;99.90
9223;DHT22;7557;51.698;3.942;2022-10-16T13:26:23;20.50;99.90
9223;DHT22;7557;51.698;3.942;2022-10-16T13:28:53;20.40;99.90
9223;DHT22;7557;51.698;3.942;2022-10-16T13:31:45;20.40;99.90
9223;DHT22;7557;51.698;3.942;2022-10-16T13:34:17;20.40;99.90
9223;DHT22;7557;51.698;3.942;2022-10-16T13:36:47;20.40;99.90
9223;DHT22;7557;51.698;3.942;2022-10-16T13:39:21;20.40;99.90
9223;DHT22;7557;51.698;3.942;2022-10-16T13:42:01;20.50;99.90
9223;DHT22;7557;51.698;3.942;2022-10-16T13:44:44;20.50;99.90
9223;DHT22;7557;51.698;3.942;2022-10-16T13:47:19;20.50;99.90
9223;DHT22;7557;51.698;3.942;2022-10-16T13:49:58;20.50;99.90
9223;DHT22;7557;51.698;3.942;2022-10-16T13:52:25;20.30;99.90
9223;DHT22;7557;51.698;3.942;2022-10-16T13:54:53;20.20;99.90
9223;DHT22;7557;51.698;3.942;2022-10-16T13:57:22;20.20;99.90
9223;DHT22;7557;51.698;3.942;2022-10-16T13:59:50;20.10;99.90
9223;DHT22;7557;51.698;3.942;2022-10-16T14:02:25;20.10;99.90
9223;DHT22;7557;51.698;3.942;2022-10-16T14:04:53;20.10;99.90
9223;DHT22;7557;51.698;3.942;2022-10-16T14:07:28;20.20;99.90
9223;DHT22;7557;51.698;3.942;2022-10-16T14:10:01;20.20;99.90
9223;DHT22;7557;51.698;3.942;2022-10-16T14:12:42;20.30;99.90
9223;DHT22;7557;51.698;3.942;2022-10-16T14:15:17;20.30;99.90
9223;DHT22;7557;51.698;3.942;2022-10-16T14:18:01;20.30;99.90
9223;DHT22;7557;51.698;3.942;2022-10-16T14:20:30;20.30;99.90
9223;DHT22;7557;51.698;3.942;2022-10-16T14:23:00;20.20;99.90
9223;DHT22;7557;51.698;3.942;2022-10-16T14:25:30;20.20;99.90
9223;DHT22;7557;51.698;3.942;2022-10-16T14:28:03;20.10;99.90
9223;DHT22;7557;51.698;3.942;2022-10-16T14:30:32;20.10;99.90
9223;DHT22;7557;51.698;3.942;2022-10-16T14:33:02;20.00;99.90
9223;DHT22;7557;51.698;3.942;2022-10-16T14:35:31;19.90;99.90
9223;DHT22;7557;51.698;3.942;2022-10-16T14:38:01;19.80;99.90
9223;DHT22;7557;51.698;3.942;2022-10-16T14:40:30;19.70;99.90
9223;DHT22;7557;51.698;3.942;2022-10-16T14:42:59;19.70;99.90
9223;DHT22;7557;51.698;3.942;2022-10-16T14:45:29;19.70;99.90
9223;DHT22;7557;51.698;3.942;2022-10-16T14:47:58;19.70;99.90
9223;DHT22;7557;51.698;3.942;2022-10-16T14:50:29;19.60;99.90
9223;DHT22;7557;51.698;3.942;2022-10-16T14:52:56;19.50;99.90
9223;DHT22;7557;51.698;3.942;2022-10-16T14:55:24;19.50;99.90
9223;DHT22;7557;51.698;3.942;2022-10-16T14:57:52;19.50;99.90
9223;DHT22;7557;51.698;3.942;2022-10-16T15:00:33;19.50;99.90
9223;DHT22;7557;51.698;3.942;2022-10-16T15:03:01;19.50;99.90
9223;DHT22;7557;51.698;3.942;2022-10-16T15:05:29;19.40;99.90
9223;DHT22;7557;51.698;3.942;2022-10-16T15:07:57;19.40;99.90
9223;DHT22;7557;51.698;3.942;2022-10-16T15:10:27;19.30;99.90
9223;DHT22;7557;51.698;3.942;2022-10-16T15:12:55;19.20;99.90
9223;DHT22;7557;51.698;3.942;2022-10-16T15:15:33;19.10;99.90
9223;DHT22;7557;51.698;3.942;2022-10-16T15:18:01;19.10;99.90
9223;DHT22;7557;51.698;3.942;2022-10-16T15:20:32;19.10;99.90
9223;DHT22;7557;51.698;3.942;2022-10-16T15:23:01;19.10;99.90
9223;DHT22;7557;51.698;3.942;2022-10-16T15:25:32;19.00;99.90
9223;DHT22;7557;51.698;3.942;2022-10-16T15:28:01;19.00;99.90
9223;DHT22;7557;51.698;3.942;2022-10-16T15:30:42;19.00;99.90
9223;DHT22;7557;51.698;3.942;2022-10-16T15:33:13;19.00;99.90
9223;DHT22;7557;51.698;3.942;2022-10-16T15:35:44;19.00;99.90
9223;DHT22;7557;51.698;3.942;2022-10-16T15:38:13;18.90;99.90
9223;DHT22;7557;51.698;3.942;2022-10-16T15:40:41;18.80;99.90
9223;DHT22;7557;51.698;3.942;2022-10-16T15:43:08;18.70;99.90
9223;DHT22;7557;51.698;3.942;2022-10-16T15:45:36;18.60;99.90
9223;DHT22;7557;51.698;3.942;2022-10-16T15:48:03;18.60;99.90
9223;DHT22;7557;51.698;3.942;2022-10-16T15:50:31;18.50;99.90
9223;DHT22;7557;51.698;3.942;2022-10-16T15:53:15;18.50;99.90
9223;DHT22;7557;51.698;3.942;2022-10-16T15:55:43;18.50;99.90
9223;DHT22;7557;51.698;3.942;2022-10-16T15:58:10;18.60;99.90
9223;DHT22;7557;51.698;3.942;2022-10-16T16:00:38;18.60;99.90
9223;DHT22;7557;51.698;3.942;2022-10-16T16:03:05;18.50;99.90
9223;DHT22;7557;51.698;3.942;2022-10-16T16:05:33;18.40;99.90
9223;DHT22;7557;51.698;3.942;2022-10-16T16:08:04;18.30;99.90
9223;DHT22;7557;51.698;3.942;2022-10-16T16:10:33;18.30;99.90
9223;DHT22;7557;51.698;3.942;2022-10-16T16:13:01;18.30;99.90
9223;DHT22;7557;51.698;3.942;2022-10-16T16:15:28;18.30;99.90
9223;DHT22;7557;51.698;3.942;2022-10-16T16:17:55;18.30;99.90
9223;DHT22;7557;51.698;3.942;2022-10-16T16:20:23;18.30;99.90
9223;DHT22;7557;51.698;3.942;2022-10-16T16:22:50;18.40;99.90
9223;DHT22;7557;51.698;3.942;2022-10-16T16:25:18;18.40;99.90
9223;DHT22;7557;51.698;3.942;2022-10-16T16:28:00;18.30;99.90
9223;DHT22;7557;51.698;3.942;2022-10-16T16:30:28;18.20;99.90
9223;DHT22;7557;51.698;3.942;2022-10-16T16:32:55;18.10;99.90
9223;DHT22;7557;51.698;3.942;2022-10-16T16:35:36;18.10;99.90
9223;DHT22;7557;51.698;3.942;2022-10-16T16:38:03;18.20;99.90
9223;DHT22;7557;51.698;3.942;2022-10-16T16:40:39;18.20;99.90
9223;DHT22;7557;51.698;3.942;2022-10-16T16:43:16;18.10;99.90
9223;DHT22;7557;51.698;3.942;2022-10-16T16:45:44;18.10;99.90